Time;durP1;ratioP1;P1;durP2;ratioP2;P2;SDS_P1;SDS_P2;PMS_P1;PMS_P2;Temp;Humidity;BMP_temperature;BMP_pressure;BME280_temperature;BME280_humidity;BME280_pressure;Samples;Min_cycle;Max_cycle;Signal;HPM_P1;HPM_P2
2021/08/03 00:01:03;;;;;;;15.63;6.47;;;;;;;;;;10360836;28;20465;-67
2021/08/03 00:06:05;;;;;;;12.40;6.63;;;;;;;;;;10359581;28;20083;-67
2021/08/03 00:11:04;;;;;;;15.18;6.50;;;;;;;;;;10360688;28;20385;-67
2021/08/03 00:16:03;;;;;;;15.23;6.38;;;;;;;;;;10359603;28;20051;-67
2021/08/03 00:21:04;;;;;;;20.00;7.18;;;;;;;;;;10359251;28;20193;-66
2021/08/03 00:26:02;;;;;;;22.48;8.10;;;;;;;;;;10358524;28;20048;-67
2021/08/03 00:31:01;;;;;;;18.90;6.70;;;;;;;;;;10359824;28;20036;-67
2021/08/03 00:36:00;;;;;;;20.95;6.97;;;;;;;;;;10358051;28;20080;-67
2021/08/03 00:41:02;;;;;;;17.33;7.78;;;;;;;;;;10358488;28;20083;-67
2021/08/03 00:46:01;;;;;;;24.25;9.52;;;;;;;;;;10357490;28;20052;-64
2021/08/03 00:51:00;;;;;;;26.05;10.40;;;;;;;;;;10357226;28;20051;-65
2021/08/03 00:56:00;;;;;;;22.92;10.68;;;;;;;;;;10356744;28;20044;-64
2021/08/03 01:01:00;;;;;;;22.08;10.20;;;;;;;;;;10356500;28;20083;-64
2021/08/03 01:06:02;;;;;;;23.70;11.65;;;;;;;;;;10356205;28;20048;-64
2021/08/03 01:11:04;;;;;;;20.25;11.55;;;;;;;;;;10355597;28;20044;-65
2021/08/03 01:16:10;;;;;;;15.38;8.85;;;;;;;;;;10357487;28;20056;-64
2021/08/03 01:21:19;;;;;;;22.15;10.63;;;;;;;;;;10355167;28;20075;-64
2021/08/03 01:26:25;;;;;;;17.10;9.57;;;;;;;;;;10355890;28;20044;-65
2021/08/03 01:31:28;;;;;;;16.45;8.80;;;;;;;;;;10354889;28;20052;-64
2021/08/03 01:36:28;;;;;;;13.75;7.55;;;;;;;;;;10356166;28;20087;-63
2021/08/03 01:41:27;;;;;;;20.23;10.55;;;;;;;;;;10355952;28;20083;-64
2021/08/03 01:46:28;;;;;;;15.50;7.97;;;;;;;;;;10355471;28;20051;-64
2021/08/03 01:51:30;;;;;;;22.63;9.27;;;;;;;;;;10362120;28;20054;-65
2021/08/03 01:56:30;;;;;;;26.45;9.70;;;;;;;;;;10363048;28;20051;-64
2021/08/03 02:01:32;;;;;;;28.48;10.32;;;;;;;;;;10362663;28;20052;-64
2021/08/03 02:06:33;;;;;;;17.60;8.90;;;;;;;;;;10364493;28;20048;-65
2021/08/03 02:11:35;;;;;;;17.65;8.70;;;;;;;;;;10363251;28;20055;-64
2021/08/03 02:16:37;;;;;;;17.40;8.90;;;;;;;;;;10363896;28;20048;-64
2021/08/03 02:21:38;;;;;;;18.05;9.18;;;;;;;;;;10361841;28;20056;-64
2021/08/03 02:26:37;;;;;;;14.45;9.02;;;;;;;;;;10362686;28;20044;-64
2021/08/03 02:31:41;;;;;;;16.17;8.70;;;;;;;;;;10362613;28;20041;-64
2021/08/03 02:36:43;;;;;;;12.15;8.23;;;;;;;;;;10362213;28;20055;-64
2021/08/03 02:41:44;;;;;;;;;;;;;;;;;;10362007;28;20127;-65
2021/08/03 02:46:44;;;;;;;16.38;7.97;;;;;;;;;;10363033;28;20428;-65
2021/08/03 02:51:45;;;;;;;13.33;7.67;;;;;;;;;;10362590;28;20052;-65
2021/08/03 02:56:45;;;;;;;15.13;9.05;;;;;;;;;;10362080;28;20059;-64
2021/08/03 03:01:46;;;;;;;19.95;7.82;;;;;;;;;;10334312;28;20528;-63
2021/08/03 03:06:48;;;;;;;9.13;7.78;;;;;;;;;;10335930;28;20524;-64
2021/08/03 03:11:48;;;;;;;14.02;6.78;;;;;;;;;;10331766;28;20068;-62
2021/08/03 03:16:50;;;;;;;11.52;7.10;;;;;;;;;;10344394;28;20084;-63
2021/08/03 03:21:49;;;;;;;14.18;8.30;;;;;;;;;;10342067;28;20087;-63
2021/08/03 03:26:50;;;;;;;12.82;7.22;;;;;;;;;;10354234;28;20052;-64
2021/08/03 03:31:52;;;;;;;10.00;6.80;;;;;;;;;;10324858;28;20091;-64
2021/08/03 03:36:51;;;;;;;13.23;8.23;;;;;;;;;;10315407;28;20079;-64
2021/08/03 03:41:52;;;;;;;12.10;7.93;;;;;;;;;;10314482;28;20091;-64
2021/08/03 03:46:55;;;;;;;10.65;7.45;;;;;;;;;;10316097;28;20496;-63
2021/08/03 03:51:54;;;;;;;13.30;7.67;;;;;;;;;;10318844;28;20048;-64
2021/08/03 03:56:56;;;;;;;16.05;8.27;;;;;;;;;;10318616;28;20049;-62
2021/08/03 04:01:59;;;;;;;10.90;8.03;;;;;;;;;;10317161;28;20056;-63
2021/08/03 04:06:59;;;;;;;14.23;8.40;;;;;;;;;;10317329;28;20449;-63
2021/08/03 04:11:58;;;;;;;27.50;8.57;;;;;;;;;;10316805;28;20036;-64
2021/08/03 04:16:57;;;;;;;14.30;8.02;;;;;;;;;;10317693;28;20080;-64
2021/08/03 04:22:00;;;;;;;11.30;7.70;;;;;;;;;;10317808;28;20086;-64
2021/08/03 04:26:58;;;;;;;13.88;8.88;;;;;;;;;;10317398;28;20080;-63
2021/08/03 04:31:56;;;;;;;17.30;8.18;;;;;;;;;;10317214;28;20048;-65
2021/08/03 04:36:55;;;;;;;12.13;6.97;;;;;;;;;;10316904;28;20041;-63
2021/08/03 04:41:54;;;;;;;13.90;7.10;;;;;;;;;;10316749;28;20080;-63
2021/08/03 04:46:53;;;;;;;20.20;9.65;;;;;;;;;;10316717;28;20079;-64
2021/08/03 04:51:51;;;;;;;26.52;9.10;;;;;;;;;;10315122;28;20048;-64
2021/08/03 04:56:50;;;;;;;27.50;9.65;;;;;;;;;;10314396;28;20091;-65
2021/08/03 05:01:49;;;;;;;17.67;8.80;;;;;;;;;;10314235;28;20472;-64
2021/08/03 05:06:48;;;;;;;30.02;10.75;;;;;;;;;;10314838;28;20053;-65
2021/08/03 05:11:46;;;;;;;29.67;11.05;;;;;;;;;;10316317;28;20079;-64
2021/08/03 05:16:45;;;;;;;24.75;10.48;;;;;;;;;;10315978;28;20052;-65
2021/08/03 05:21:45;;;;;;;27.80;9.38;;;;;;;;;;10316055;28;20535;-65
2021/08/03 05:26:43;;;;;;;20.58;9.15;;;;;;;;;;10316006;28;20036;-65
2021/08/03 05:31:41;;;;;;;15.90;8.98;;;;;;;;;;10316362;28;20477;-65
2021/08/03 05:36:40;;;;;;;21.00;9.43;;;;;;;;;;10315501;28;20056;-65
2021/08/03 05:41:39;;;;;;;17.88;8.68;;;;;;;;;;10314610;28;20182;-65
2021/08/03 05:46:38;;;;;;;23.70;8.63;;;;;;;;;;10314527;28;20474;-65
2021/08/03 05:51:36;;;;;;;13.35;7.60;;;;;;;;;;10314296;28;20520;-65
2021/08/03 05:56:36;;;;;;;21.42;9.18;;;;;;;;;;10315683;28;20049;-65
2021/08/03 06:01:36;;;;;;;19.60;9.55;;;;;;;;;;10315276;28;20155;-65
2021/08/03 06:06:37;;;;;;;21.30;8.25;;;;;;;;;;10315453;28;20382;-65
2021/08/03 06:11:37;;;;;;;23.15;8.88;;;;;;;;;;10314903;28;20045;-65
2021/08/03 06:16:38;;;;;;;16.35;7.38;;;;;;;;;;10315485;28;20051;-65
2021/08/03 06:21:36;;;;;;;15.77;7.50;;;;;;;;;;10315661;28;20104;-65
2021/08/03 06:26:35;;;;;;;9.80;7.38;;;;;;;;;;10315368;28;20083;-65
2021/08/03 06:31:34;;;;;;;12.82;7.68;;;;;;;;;;10314802;28;20052;-65
2021/08/03 06:36:33;;;;;;;15.55;7.10;;;;;;;;;;10318692;28;20076;-65
2021/08/03 06:41:36;;;;;;;14.32;6.82;;;;;;;;;;10321953;28;20048;-65
2021/08/03 06:46:35;;;;;;;19.58;6.97;;;;;;;;;;10321591;28;20048;-64
2021/08/03 06:51:36;;;;;;;13.65;7.88;;;;;;;;;;10321854;28;20055;-66
2021/08/03 06:56:38;;;;;;;19.85;8.10;;;;;;;;;;10321472;28;20040;-64
2021/08/03 07:01:39;;;;;;;11.70;7.50;;;;;;;;;;10321249;28;20118;-65
2021/08/03 07:06:43;;;;;;;10.95;5.88;;;;;;;;;;10321008;28;20041;-65
2021/08/03 07:11:42;;;;;;;11.55;5.80;;;;;;;;;;10320917;28;20049;-65
2021/08/03 07:16:41;;;;;;;8.90;5.22;;;;;;;;;;10321114;28;20072;-65
2021/08/03 07:21:43;;;;;;;11.15;5.82;;;;;;;;;;10320958;28;20126;-64
2021/08/03 07:26:42;;;;;;;23.35;8.48;;;;;;;;;;10320422;28;20049;-65
2021/08/03 07:31:41;;;;;;;12.63;6.80;;;;;;;;;;10319467;28;20519;-64
2021/08/03 07:36:42;;;;;;;15.88;6.43;;;;;;;;;;10319745;28;20075;-64
2021/08/03 07:41:40;;;;;;;22.17;9.88;;;;;;;;;;10319396;28;20079;-64
2021/08/03 07:46:38;;;;;;;14.45;8.40;;;;;;;;;;10318830;28;20536;-64
2021/08/03 07:51:37;;;;;;;15.48;8.93;;;;;;;;;;10318468;28;20049;-65
2021/08/03 07:56:37;;;;;;;11.93;8.88;;;;;;;;;;10318989;28;20048;-65
2021/08/03 08:01:35;;;;;;;9.75;7.78;;;;;;;;;;10318517;28;20044;-65
2021/08/03 08:06:34;;;;;;;12.57;7.88;;;;;;;;;;10318493;28;20044;-64
2021/08/03 08:11:49;;;;;;;13.52;7.70;;;;;;;;;;10318093;28;20071;-65
2021/08/03 08:16:47;;;;;;;20.42;7.93;;;;;;;;;;10318242;28;20047;-64
2021/08/03 08:21:46;;;;;;;8.43;6.57;;;;;;;;;;10318041;28;20045;-63
2021/08/03 08:26:46;;;;;;;12.55;6.72;;;;;;;;;;10317690;28;20449;-64
2021/08/03 08:31:46;;;;;;;19.15;14.20;;;;;;;;;;10317513;28;20422;-64
2021/08/03 08:36:45;;;;;;;10.85;6.55;;;;;;;;;;10317133;28;20036;-66
2021/08/03 08:41:44;;;;;;;8.70;6.07;;;;;;;;;;10317377;28;20083;-64
2021/08/03 08:46:42;;;;;;;13.82;7.53;;;;;;;;;;10317409;28;20084;-64
2021/08/03 08:51:42;;;;;;;10.55;6.72;;;;;;;;;;10317536;28;20067;-65
2021/08/03 08:56:46;;;;;;;10.20;7.20;;;;;;;;;;10316980;28;20052;-65
2021/08/03 09:01:44;;;;;;;13.15;5.75;;;;;;;;;;10316474;28;20043;-64
2021/08/03 09:07:00;;;;;;;9.80;6.30;;;;;;;;;;10317000;28;20079;-65
2021/08/03 09:11:58;;;;;;;10.80;8.00;;;;;;;;;;10316806;28;20465;-64
2021/08/03 09:16:59;;;;;;;12.43;5.43;;;;;;;;;;10316482;28;20520;-65
2021/08/03 09:22:15;;;;;;;12.95;7.10;;;;;;;;;;10316381;28;20044;-65
2021/08/03 09:27:33;;;;;;;10.90;6.38;;;;;;;;;;10316369;28;20049;-65
2021/08/03 09:32:32;;;;;;;13.80;6.63;;;;;;;;;;10316883;28;20064;-64
2021/08/03 09:37:34;;;;;;;10.25;7.20;;;;;;;;;;10315912;28;20434;-65
2021/08/03 09:42:32;;;;;;;7.50;6.03;;;;;;;;;;10316072;28;20406;-65
2021/08/03 09:47:31;;;;;;;12.45;8.30;;;;;;;;;;10316226;28;20090;-64
2021/08/03 09:52:30;;;;;;;14.40;7.03;;;;;;;;;;10315824;28;20056;-64
2021/08/03 09:57:30;;;;;;;10.75;7.50;;;;;;;;;;10316019;28;20064;-64
2021/08/03 10:02:29;;;;;;;9.02;6.78;;;;;;;;;;10315975;28;20533;-64
2021/08/03 10:07:27;;;;;;;8.48;6.28;;;;;;;;;;10315752;28;20048;-64
2021/08/03 10:12:25;;;;;;;9.40;6.15;;;;;;;;;;10320693;28;20045;-65
2021/08/03 10:17:25;;;;;;;14.23;6.55;;;;;;;;;;10322261;28;20079;-64
2021/08/03 10:22:25;;;;;;;10.25;6.15;;;;;;;;;;10322843;28;20040;-64
2021/08/03 10:27:38;;;;;;;11.52;6.97;;;;;;;;;;10322466;28;20049;-65
2021/08/03 10:32:41;;;;;;;11.52;5.80;;;;;;;;;;10321313;28;20040;-65
2021/08/03 10:37:57;;;;;;;11.82;7.20;;;;;;;;;;10322283;28;20057;-65
2021/08/03 10:43:10;;;;;;;10.52;7.22;;;;;;;;;;10322147;28;20079;-64
2021/08/03 10:48:10;;;;;;;10.77;6.90;;;;;;;;;;10322262;28;20489;-65
2021/08/03 10:53:09;;;;;;;14.82;6.28;;;;;;;;;;10322288;28;20048;-63
2021/08/03 10:58:23;;;;;;;11.50;6.18;;;;;;;;;;10322044;28;20044;-64
2021/08/03 11:03:42;;;;;;;13.23;8.02;;;;;;;;;;10321116;28;20084;-64
2021/08/03 11:08:48;;;;;;;6.93;6.03;;;;;;;;;;10321063;28;20084;-64
2021/08/03 11:13:47;;;;;;;9.82;6.38;;;;;;;;;;10321298;28;20083;-64
2021/08/03 11:18:47;;;;;;;14.02;7.57;;;;;;;;;;10320722;28;20059;-64
2021/08/03 11:24:14;;;;;;;9.60;6.47;;;;;;;;;;10320437;28;20092;-64
2021/08/03 11:29:14;;;;;;;8.95;6.90;;;;;;;;;;10320616;28;20348;-65
2021/08/03 11:34:14;;;;;;;8.20;6.78;;;;;;;;;;10320555;28;20072;-66
2021/08/03 11:39:22;;;;;;;15.00;7.30;;;;;;;;;;10319695;28;20068;-66
2021/08/03 11:44:20;;;;;;;13.35;7.68;;;;;;;;;;10320121;28;20084;-65
2021/08/03 11:49:26;;;;;;;10.25;6.97;;;;;;;;;;10320111;28;20044;-64
2021/08/03 11:54:24;;;;;;;10.60;7.40;;;;;;;;;;10319932;28;20102;-65
2021/08/03 11:59:29;;;;;;;10.73;7.05;;;;;;;;;;10319592;28;20055;-64
2021/08/03 12:04:29;;;;;;;7.55;6.13;;;;;;;;;;10319496;28;20488;-64
2021/08/03 12:09:27;;;;;;;12.40;6.25;;;;;;;;;;10319197;28;20045;-66
2021/08/03 12:14:32;;;;;;;9.70;6.25;;;;;;;;;;10319200;28;20041;-64
2021/08/03 12:19:34;;;;;;;11.23;6.35;;;;;;;;;;10318943;28;20047;-64
2021/08/03 12:24:32;;;;;;;8.57;6.70;;;;;;;;;;10318681;28;20498;-64
2021/08/03 12:29:34;;;;;;;13.80;6.75;;;;;;;;;;10318447;28;20045;-65
2021/08/03 12:34:37;;;;;;;14.00;10.20;;;;;;;;;;10317749;28;20056;-64
2021/08/03 12:39:37;;;;;;;11.13;8.20;;;;;;;;;;10316847;28;20056;-65
2021/08/03 12:44:36;;;;;;;16.13;8.35;;;;;;;;;;10317678;28;20076;-65
2021/08/03 12:49:36;;;;;;;15.52;7.45;;;;;;;;;;10317777;28;20048;-64
2021/08/03 12:54:35;;;;;;;9.73;6.75;;;;;;;;;;10317959;28;20048;-64
2021/08/03 12:59:35;;;;;;;10.40;7.35;;;;;;;;;;10317496;28;20485;-64
2021/08/03 13:04:33;;;;;;;11.85;8.35;;;;;;;;;;10317296;28;20085;-65
2021/08/03 13:09:34;;;;;;;12.20;7.68;;;;;;;;;;10317124;28;20506;-65
2021/08/03 13:14:32;;;;;;;14.07;8.63;;;;;;;;;;10318223;28;20056;-64
2021/08/03 13:19:32;;;;;;;12.85;7.78;;;;;;;;;;10316297;28;20122;-64
2021/08/03 13:24:30;;;;;;;9.57;6.05;;;;;;;;;;10314811;28;20045;-64
2021/08/03 13:29:30;;;;;;;6.75;4.63;;;;;;;;;;10316617;28;20040;-64
2021/08/03 13:34:28;;;;;;;11.73;6.53;;;;;;;;;;10316261;28;20070;-64
2021/08/03 13:39:27;;;;;;;12.35;5.50;;;;;;;;;;10315740;28;20064;-64
2021/08/03 13:44:25;;;;;;;6.82;4.55;;;;;;;;;;10318705;28;20512;-64
2021/08/03 13:49:25;;;;;;;10.70;5.60;;;;;;;;;;10325091;28;20049;-64
2021/08/03 13:54:23;;;;;;;7.82;5.05;;;;;;;;;;10324680;28;20067;-64
2021/08/03 13:59:22;;;;;;;7.88;4.70;;;;;;;;;;10323590;28;20041;-65
2021/08/03 14:04:20;;;;;;;6.88;5.50;;;;;;;;;;10323870;28;20115;-65
2021/08/03 14:09:20;;;;;;;9.30;5.30;;;;;;;;;;10323554;28;20076;-65
2021/08/03 14:14:18;;;;;;;11.88;4.88;;;;;;;;;;10323717;28;20063;-65
2021/08/03 14:19:21;;;;;;;5.72;5.00;;;;;;;;;;10323551;28;20048;-65
2021/08/03 14:24:21;;;;;;;7.68;5.18;;;;;;;;;;10323457;28;20087;-64
2021/08/03 14:29:19;;;;;;;9.82;5.35;;;;;;;;;;10323255;28;20076;-64
2021/08/03 14:34:18;;;;;;;10.43;5.13;;;;;;;;;;10323066;28;20040;-64
2021/08/03 14:39:16;;;;;;;7.00;5.32;;;;;;;;;;10322212;28;20433;-64
2021/08/03 14:44:16;;;;;;;7.82;5.50;;;;;;;;;;10323505;28;20044;-62
2021/08/03 14:49:14;;;;;;;11.05;5.60;;;;;;;;;;10331740;28;20064;-63
2021/08/03 14:54:14;;;;;;;12.32;4.85;;;;;;;;;;10341067;28;20072;-63
2021/08/03 14:59:13;;;;;;;5.57;4.50;;;;;;;;;;10344306;28;20492;-63
2021/08/03 15:04:12;;;;;;;8.07;4.75;;;;;;;;;;10339260;28;20076;-63
2021/08/03 15:09:11;;;;;;;8.10;5.82;;;;;;;;;;10342105;28;20382;-62
2021/08/03 15:14:09;;;;;;;8.32;6.43;;;;;;;;;;10339058;28;20043;-62
2021/08/03 15:19:07;;;;;;;15.25;4.90;;;;;;;;;;10335408;28;20076;-63
2021/08/03 15:24:07;;;;;;;6.68;3.90;;;;;;;;;;10343379;28;20495;-62
2021/08/03 15:29:06;;;;;;;3.92;3.38;;;;;;;;;;10339874;28;20071;-62
2021/08/03 15:34:04;;;;;;;7.13;3.88;;;;;;;;;;10339831;28;20041;-63
2021/08/03 15:39:04;;;;;;;6.63;3.10;;;;;;;;;;10340160;28;20083;-61
2021/08/03 15:44:03;;;;;;;5.40;4.60;;;;;;;;;;10339613;28;20409;-61
2021/08/03 15:49:02;;;;;;;9.55;3.50;;;;;;;;;;10342831;28;20071;-61
2021/08/03 15:54:00;;;;;;;5.53;3.08;;;;;;;;;;10337779;28;20517;-62
2021/08/03 15:58:59;;;;;;;4.68;3.60;;;;;;;;;;10337425;28;20048;-61
2021/08/03 16:03:58;;;;;;;7.28;2.88;;;;;;;;;;10330495;28;20068;-62
2021/08/03 16:08:57;;;;;;;7.93;3.08;;;;;;;;;;10337771;28;20152;-60
2021/08/03 16:13:55;;;;;;;5.38;4.20;;;;;;;;;;10332130;28;20110;-63
2021/08/03 16:18:55;;;;;;;10.05;6.25;;;;;;;;;;10320294;28;20076;-63
2021/08/03 16:23:56;;;;;;;11.73;6.13;;;;;;;;;;10314027;28;20087;-63
2021/08/03 16:28:57;;;;;;;7.57;4.90;;;;;;;;;;10315600;28;20083;-63
2021/08/03 16:33:57;;;;;;;7.35;5.57;;;;;;;;;;10317953;28;20048;-63
2021/08/03 16:38:58;;;;;;;10.25;6.65;;;;;;;;;;10317260;28;20059;-62
2021/08/03 16:43:56;;;;;;;11.77;6.80;;;;;;;;;;10318179;28;20382;-62
2021/08/03 16:48:54;;;;;;;12.57;7.18;;;;;;;;;;10317198;28;20118;-63
2021/08/03 16:53:53;;;;;;;14.90;10.48;;;;;;;;;;10317495;28;20044;-63
2021/08/03 16:58:53;;;;;;;37.90;27.08;;;;;;;;;;10316717;28;20045;-63
2021/08/03 17:04:08;;;;;;;16.50;9.50;;;;;;;;;;10316905;28;20052;-63
2021/08/03 17:09:08;;;;;;;12.13;8.45;;;;;;;;;;10316694;28;20269;-63
2021/08/03 17:14:09;;;;;;;14.40;8.88;;;;;;;;;;10317130;28;20075;-63
2021/08/03 17:19:08;;;;;;;13.82;8.77;;;;;;;;;;10330002;28;20099;-63
2021/08/03 17:24:08;;;;;;;7.70;6.30;;;;;;;;;;10327324;28;20052;-62
2021/08/03 17:29:08;;;;;;;9.98;5.05;;;;;;;;;;10332350;28;20102;-63
2021/08/03 17:34:08;;;;;;;10.13;5.65;;;;;;;;;;10340945;28;20040;-63
2021/08/03 17:39:07;;;;;;;11.45;6.38;;;;;;;;;;10326476;28;20080;-62
2021/08/03 17:44:09;;;;;;;6.93;4.82;;;;;;;;;;10344159;28;20070;-63
2021/08/03 17:49:09;;;;;;;11.57;5.90;;;;;;;;;;10332277;28;20079;-63
2021/08/03 17:54:12;;;;;;;10.13;5.28;;;;;;;;;;10334806;28;20064;-62
2021/08/03 17:59:13;;;;;;;10.45;5.13;;;;;;;;;;10334973;28;20148;-62
2021/08/03 18:04:12;;;;;;;15.15;5.35;;;;;;;;;;10323838;28;20497;-63
2021/08/03 18:09:11;;;;;;;17.95;6.32;;;;;;;;;;10319042;28;20076;-62
2021/08/03 18:14:10;;;;;;;11.32;4.95;;;;;;;;;;10341893;28;20068;-62
2021/08/03 18:19:10;;;;;;;11.57;6.38;;;;;;;;;;10337645;28;20056;-62
2021/08/03 18:24:08;;;;;;;8.25;5.65;;;;;;;;;;10347224;28;20063;-63
2021/08/03 18:29:12;;;;;;;8.90;6.10;;;;;;;;;;10329117;28;20068;-62
2021/08/03 18:34:18;;;;;;;11.07;6.85;;;;;;;;;;10361025;28;20040;-63
2021/08/03 18:39:17;;;;;;;13.00;7.30;;;;;;;;;;10322466;28;20052;-63
2021/08/03 18:44:17;;;;;;;18.38;6.82;;;;;;;;;;10324325;28;20036;-62
2021/08/03 18:49:17;;;;;;;12.82;7.07;;;;;;;;;;10331420;28;20080;-62
2021/08/03 18:54:16;;;;;;;16.50;6.97;;;;;;;;;;10343255;28;20079;-63
2021/08/03 18:59:15;;;;;;;16.48;9.00;;;;;;;;;;10339736;28;20040;-62
2021/08/03 19:04:27;;;;;;;17.48;9.52;;;;;;;;;;10321798;28;20358;-62
2021/08/03 19:09:29;;;;;;;19.52;10.65;;;;;;;;;;10326801;28;20064;-62
2021/08/03 19:14:34;;;;;;;16.83;10.83;;;;;;;;;;10345875;28;20059;-63
2021/08/03 19:19:36;;;;;;;14.73;10.15;;;;;;;;;;10327217;28;20041;-62
2021/08/03 19:24:38;;;;;;;14.98;10.25;;;;;;;;;;10328151;28;20052;-62
2021/08/03 19:29:37;;;;;;;17.13;10.63;;;;;;;;;;10342296;28;20076;-61
2021/08/03 19:34:36;;;;;;;20.00;10.90;;;;;;;;;;10346063;28;20496;-62
2021/08/03 19:39:35;;;;;;;17.63;10.85;;;;;;;;;;10341141;28;20093;-62
2021/08/03 19:44:35;;;;;;;14.75;10.52;;;;;;;;;;10344922;28;20079;-63
2021/08/03 19:49:37;;;;;;;18.98;11.88;;;;;;;;;;10334552;28;20084;-62
2021/08/03 19:54:38;;;;;;;16.70;10.70;;;;;;;;;;10349075;28;20714;-62
2021/08/03 19:59:38;;;;;;;19.23;11.00;;;;;;;;;;10349392;28;20063;-62
2021/08/03 20:04:40;;;;;;;19.52;10.27;;;;;;;;;;10322261;28;20433;-62
2021/08/03 20:09:41;;;;;;;19.90;9.98;;;;;;;;;;10330402;28;20571;-62
2021/08/03 20:14:39;;;;;;;14.05;9.75;;;;;;;;;;10330577;28;20094;-64
2021/08/03 20:19:38;;;;;;;14.98;10.43;;;;;;;;;;10330735;28;20048;-63
2021/08/03 20:24:36;;;;;;;16.80;10.70;;;;;;;;;;10333074;28;20453;-63
2021/08/03 20:29:41;;;;;;;16.42;11.70;;;;;;;;;;10328400;28;20068;-61
2021/08/03 20:34:41;;;;;;;20.73;11.25;;;;;;;;;;10334666;28;20516;-62
2021/08/03 20:40:07;;;;;;;22.38;11.05;;;;;;;;;;10339823;28;20114;-62
2021/08/03 20:45:08;;;;;;;16.00;10.52;;;;;;;;;;10343249;28;20052;-61
2021/08/03 20:50:07;;;;;;;18.98;10.88;;;;;;;;;;10349111;28;20094;-62
2021/08/03 20:55:05;;;;;;;19.17;10.77;;;;;;;;;;10329920;28;20087;-62
2021/08/03 21:00:04;;;;;;;21.45;11.90;;;;;;;;;;10337734;28;20068;-63
2021/08/03 21:05:04;;;;;;;20.30;10.88;;;;;;;;;;10333537;28;20040;-63
2021/08/03 21:10:07;;;;;;;14.13;10.48;;;;;;;;;;10350926;28;20068;-63
2021/08/03 21:15:06;;;;;;;11.50;9.60;;;;;;;;;;10325501;28;20044;-64
2021/08/03 21:20:24;;;;;;;14.32;9.95;;;;;;;;;;10323926;28;20421;-63
2021/08/03 21:25:44;;;;;;;14.73;9.77;;;;;;;;;;10318773;28;20498;-64
2021/08/03 21:31:01;;;;;;;15.48;9.82;;;;;;;;;;10317193;28;20076;-64
2021/08/03 21:36:19;;;;;;;12.30;7.75;;;;;;;;;;10319459;28;20052;-64
2021/08/03 21:41:37;;;;;;;16.92;8.82;;;;;;;;;;10318620;28;20048;-63
2021/08/03 21:46:53;;;;;;;10.57;6.20;;;;;;;;;;10317580;28;20044;-64
2021/08/03 21:52:11;;;;;;;10.90;7.20;;;;;;;;;;10316801;28;20241;-64
2021/08/03 21:57:11;;;;;;;8.77;6.70;;;;;;;;;;10316409;28;20382;-64
2021/08/03 22:02:09;;;;;;;6.28;5.18;;;;;;;;;;10316195;28;20056;-63
2021/08/03 22:07:08;;;;;;;13.32;5.10;;;;;;;;;;10320474;28;20048;-63
2021/08/03 22:12:08;;;;;;;10.80;6.10;;;;;;;;;;10322976;28;20044;-62
2021/08/03 22:17:06;;;;;;;7.72;5.50;;;;;;;;;;10323782;28;20409;-63
2021/08/03 22:22:05;;;;;;;7.50;5.20;;;;;;;;;;10323103;28;20040;-63
2021/08/03 22:27:03;;;;;;;10.20;4.97;;;;;;;;;;10322925;28;20072;-63
2021/08/03 22:32:03;;;;;;;5.95;4.70;;;;;;;;;;10322553;28;20051;-63
2021/08/03 22:37:01;;;;;;;10.75;5.22;;;;;;;;;;10322764;28;20061;-63
2021/08/03 22:42:00;;;;;;;12.45;7.25;;;;;;;;;;10322549;28;20398;-62
2021/08/03 22:46:58;;;;;;;10.15;6.25;;;;;;;;;;10322286;28;20051;-63
2021/08/03 22:51:58;;;;;;;6.82;5.93;;;;;;;;;;10321983;28;20080;-63
2021/08/03 22:56:56;;;;;;;10.80;5.78;;;;;;;;;;10321836;28;20048;-63
2021/08/03 23:01:54;;;;;;;7.38;5.38;;;;;;;;;;10321512;28;20481;-62
2021/08/03 23:06:53;;;;;;;8.30;5.97;;;;;;;;;;10322050;28;20504;-63
2021/08/03 23:11:52;;;;;;;9.55;5.00;;;;;;;;;;10321137;28;20568;-63
2021/08/03 23:16:51;;;;;;;6.45;4.88;;;;;;;;;;10330498;28;20092;-65
2021/08/03 23:21:49;;;;;;;4.90;4.07;;;;;;;;;;10340051;28;20044;-63
2021/08/03 23:26:47;;;;;;;8.93;4.25;;;;;;;;;;10361219;28;20052;-64
2021/08/03 23:31:47;;;;;;;8.57;4.70;;;;;;;;;;10296821;28;20524;-63
2021/08/03 23:36:45;;;;;;;7.20;3.78;;;;;;;;;;10338285;28;20064;-64
2021/08/03 23:41:43;;;;;;;7.07;4.15;;;;;;;;;;10362163;28;20040;-63
2021/08/03 23:46:41;;;;;;;6.00;4.28;;;;;;;;;;10368209;28;20508;-63
2021/08/03 23:51:41;;;;;;;6.50;3.75;;;;;;;;;;10360883;28;20079;-64
2021/08/03 23:56:39;;;;;;;6.82;4.07;;;;;;;;;;10360470;28;20051;-64
